createdAt,value
2022-09-18T00:00:10.484Z,11.90
2022-09-18T00:02:37.158Z,11.63
2022-09-18T00:05:05.390Z,13.20
2022-09-18T00:07:32.032Z,13.07
2022-09-18T00:09:58.595Z,11.60
2022-09-18T00:12:25.191Z,15.00
2022-09-18T00:14:51.975Z,12.60
2022-09-18T00:17:18.546Z,12.98
2022-09-18T00:19:45.108Z,12.43
2022-09-18T00:22:11.853Z,12.82
2022-09-18T00:24:38.501Z,12.57
2022-09-18T00:27:05.337Z,10.77
2022-09-18T00:29:31.992Z,11.90
2022-09-18T00:31:59.919Z,10.10
2022-09-18T00:34:26.542Z,11.57
2022-09-18T00:36:53.105Z,10.93
2022-09-18T00:39:19.899Z,10.85
2022-09-18T00:41:46.454Z,11.63
2022-09-18T00:44:22.108Z,8.43
2022-09-18T00:46:48.740Z,10.32
2022-09-18T00:49:19.103Z,9.65
2022-09-18T00:51:46.326Z,10.65
2022-09-18T00:54:23.399Z,10.23
2022-09-18T00:56:50.724Z,10.95
2022-09-18T00:59:20.156Z,9.88
2022-09-18T01:01:46.745Z,12.45
2022-09-18T01:04:14.112Z,13.15
2022-09-18T01:06:46.848Z,11.00
2022-09-18T01:09:28.819Z,11.35
2022-09-18T01:12:10.788Z,10.30
2022-09-18T01:14:43.056Z,11.20
2022-09-18T01:17:12.529Z,11.43
2022-09-18T01:20:10.062Z,10.10
2022-09-18T01:22:51.741Z,10.50
2022-09-18T01:25:47.159Z,12.27
2022-09-18T01:28:23.720Z,8.38
2022-09-18T01:30:51.047Z,10.52
2022-09-18T01:33:31.579Z,7.70
2022-09-18T01:36:00.081Z,12.35
2022-09-18T01:38:33.458Z,9.70
2022-09-18T01:41:06.263Z,13.82
2022-09-18T01:43:32.956Z,9.63
2022-09-18T01:46:03.944Z,6.93
2022-09-18T01:48:51.639Z,13.38
2022-09-18T01:51:20.630Z,9.73
2022-09-18T01:54:11.027Z,7.82
2022-09-18T01:56:43.594Z,14.63
2022-09-18T01:59:12.398Z,7.45
2022-09-18T02:01:39.217Z,9.63
2022-09-18T02:04:11.563Z,7.68
2022-09-18T02:06:39.868Z,13.27
2022-09-18T02:09:06.479Z,7.53
2022-09-18T02:11:33.380Z,7.32
2022-09-18T02:14:14.785Z,7.63
2022-09-18T02:16:46.025Z,8.57
2022-09-18T02:19:28.240Z,6.78
2022-09-18T02:21:54.866Z,8.13
2022-09-18T02:24:22.296Z,8.95
2022-09-18T02:26:48.851Z,8.23
2022-09-18T02:29:15.735Z,8.52
2022-09-18T02:31:42.425Z,8.45
2022-09-18T02:34:09.554Z,7.47
2022-09-18T02:36:59.321Z,5.53
2022-09-18T02:39:44.397Z,7.80
2022-09-18T02:42:22.936Z,6.35
2022-09-18T02:45:03.157Z,7.68
2022-09-18T02:48:00.664Z,6.47
2022-09-18T02:50:41.594Z,6.07
2022-09-18T02:53:10.884Z,7.35
2022-09-18T02:55:42.999Z,4.95
2022-09-18T02:58:20.192Z,7.18
2022-09-18T03:00:46.806Z,5.82
2022-09-18T03:03:14.526Z,4.88
2022-09-18T03:05:41.090Z,6.05
2022-09-18T03:08:07.705Z,6.95
2022-09-18T03:10:34.287Z,6.18
2022-09-18T03:13:01.394Z,6.05
2022-09-18T03:15:28.047Z,4.78
2022-09-18T03:17:54.615Z,6.47
2022-09-18T03:20:21.205Z,7.45
2022-09-18T03:22:47.829Z,6.47
2022-09-18T03:25:15.431Z,7.65
2022-09-18T03:27:42.995Z,4.07
2022-09-18T03:30:09.994Z,6.03
2022-09-18T03:32:36.601Z,5.32
2022-09-18T03:35:03.184Z,5.35
2022-09-18T03:37:29.739Z,5.75
2022-09-18T03:39:56.600Z,4.90
2022-09-18T03:42:23.179Z,4.20
2022-09-18T03:44:49.759Z,3.47
2022-09-18T03:47:16.360Z,6.03
2022-09-18T03:49:42.899Z,5.72
2022-09-18T03:52:09.469Z,8.20
2022-09-18T03:54:36.035Z,3.33
2022-09-18T03:57:02.606Z,7.78
2022-09-18T03:59:29.193Z,5.07
2022-09-18T04:01:55.928Z,5.10
2022-09-18T04:04:22.655Z,5.40
2022-09-18T04:06:49.232Z,4.10
2022-09-18T04:09:20.838Z,5.28
2022-09-18T04:11:47.406Z,4.60
2022-09-18T04:14:14.825Z,3.75
2022-09-18T04:16:41.403Z,5.70
2022-09-18T04:19:08.004Z,5.18
2022-09-18T04:21:34.625Z,5.25
2022-09-18T04:24:01.427Z,6.68
2022-09-18T04:26:28.081Z,5.47
2022-09-18T04:28:54.726Z,7.35
2022-09-18T04:31:21.337Z,3.80
2022-09-18T04:33:48.421Z,6.18
2022-09-18T04:36:15.294Z,6.60
2022-09-18T04:38:41.854Z,3.95
2022-09-18T04:41:08.634Z,6.18
2022-09-18T04:43:35.204Z,6.13
2022-09-18T04:46:02.473Z,5.00
2022-09-18T04:48:29.127Z,6.25
2022-09-18T04:50:55.723Z,4.90
2022-09-18T04:53:22.351Z,5.72
2022-09-18T04:55:48.992Z,5.15
2022-09-18T04:58:16.044Z,6.88
2022-09-18T05:00:56.125Z,5.15
2022-09-18T05:03:22.783Z,5.43
2022-09-18T05:05:50.366Z,4.93
2022-09-18T05:08:17.164Z,5.03
2022-09-18T05:10:43.876Z,4.32
2022-09-18T05:13:10.563Z,5.40
2022-09-18T05:15:37.200Z,5.05
2022-09-18T05:18:11.365Z,4.47
2022-09-18T05:20:38.213Z,6.57
2022-09-18T05:23:04.804Z,5.35
2022-09-18T05:25:31.662Z,4.40
2022-09-18T05:27:59.719Z,5.30
2022-09-18T05:30:26.746Z,5.43
2022-09-18T05:33:00.544Z,5.13
2022-09-18T05:35:28.463Z,4.90
2022-09-18T05:37:55.225Z,4.07
2022-09-18T05:40:25.603Z,4.63
2022-09-18T05:42:55.653Z,5.57
2022-09-18T05:45:22.463Z,4.70
2022-09-18T05:47:59.323Z,7.85
2022-09-18T05:50:26.747Z,5.40
2022-09-18T05:53:15.474Z,5.75
2022-09-18T05:55:42.083Z,5.43
2022-09-18T05:58:12.256Z,5.60
2022-09-18T06:00:38.832Z,5.32
2022-09-18T06:03:07.110Z,8.48
2022-09-18T06:05:34.732Z,5.60
2022-09-18T06:08:02.041Z,5.38
2022-09-18T06:10:29.344Z,6.18
2022-09-18T06:13:05.765Z,5.47
2022-09-18T06:15:32.772Z,7.13
2022-09-18T06:17:59.379Z,3.95
2022-09-18T06:20:26.114Z,5.22
2022-09-18T06:22:52.745Z,5.85
2022-09-18T06:25:21.937Z,5.15
2022-09-18T06:27:53.586Z,6.25
2022-09-18T06:30:20.496Z,5.95
2022-09-18T06:32:47.148Z,6.55
2022-09-18T06:35:13.844Z,4.40
2022-09-18T06:37:40.441Z,3.63
2022-09-18T06:40:07.282Z,3.25
2022-09-18T06:42:33.999Z,5.90
2022-09-18T06:45:00.580Z,4.95
2022-09-18T06:47:27.161Z,3.47
2022-09-18T06:49:53.803Z,6.40
2022-09-18T06:52:20.402Z,5.70
2022-09-18T06:54:47.037Z,4.35
2022-09-18T06:57:13.638Z,4.75
2022-09-18T06:59:40.276Z,4.32
2022-09-18T07:02:15.034Z,4.32
2022-09-18T07:04:44.087Z,3.70
2022-09-18T07:07:10.682Z,3.67
2022-09-18T07:09:37.272Z,2.83
2022-09-18T07:12:03.978Z,2.53
2022-09-18T07:14:30.627Z,2.60
2022-09-18T07:16:57.214Z,2.40
2022-09-18T07:19:23.960Z,2.85
2022-09-18T07:21:52.143Z,1.67
2022-09-18T07:24:18.781Z,2.03
2022-09-18T07:26:45.375Z,4.53
2022-09-18T07:29:11.941Z,3.33
2022-09-18T07:31:38.633Z,2.20
2022-09-18T07:34:07.301Z,3.28
2022-09-18T07:36:33.943Z,2.25
2022-09-18T07:39:00.690Z,2.13
2022-09-18T07:41:27.502Z,3.58
2022-09-18T07:43:54.082Z,3.15
2022-09-18T07:46:20.734Z,1.67
2022-09-18T07:48:47.374Z,3.78
2022-09-18T07:51:14.250Z,2.08
2022-09-18T07:53:41.282Z,2.33
2022-09-18T07:56:09.381Z,1.77
2022-09-18T07:58:36.310Z,1.80
2022-09-18T08:01:03.400Z,1.92
2022-09-18T08:03:30.227Z,1.38
2022-09-18T08:05:56.874Z,1.60
2022-09-18T08:08:23.536Z,1.20
2022-09-18T08:10:50.140Z,3.13
2022-09-18T08:13:16.709Z,2.85
2022-09-18T08:15:43.320Z,1.98
2022-09-18T08:18:11.428Z,1.67
2022-09-18T08:20:38.036Z,1.10
2022-09-18T08:23:06.232Z,1.58
2022-09-18T08:25:33.012Z,2.30
2022-09-18T08:28:01.712Z,2.42
2022-09-18T08:30:28.516Z,1.63
2022-09-18T08:33:02.936Z,1.55
2022-09-18T08:35:30.686Z,5.88
2022-09-18T08:37:58.116Z,1.33
2022-09-18T08:40:39.440Z,1.35
2022-09-18T08:43:21.844Z,2.28
2022-09-18T08:46:05.303Z,2.67
2022-09-18T08:48:35.196Z,2.13
2022-09-18T08:51:19.360Z,1.95
2022-09-18T08:53:47.872Z,1.48
2022-09-18T08:56:20.949Z,1.13
2022-09-18T08:58:52.568Z,3.20
2022-09-18T09:01:19.265Z,1.60
2022-09-18T09:04:07.462Z,1.80
2022-09-18T09:06:46.097Z,1.30
2022-09-18T09:09:22.729Z,1.13
2022-09-18T09:12:02.126Z,1.30
2022-09-18T09:14:58.148Z,1.33
2022-09-18T09:17:40.067Z,1.10
2022-09-18T09:20:12.556Z,1.30
2022-09-18T09:23:05.613Z,1.92
2022-09-18T09:25:51.350Z,1.88
2022-09-18T09:28:23.731Z,1.23
2022-09-18T09:30:54.702Z,2.00
2022-09-18T09:33:24.798Z,1.45
2022-09-18T09:35:53.772Z,2.30
2022-09-18T09:38:32.345Z,2.17
2022-09-18T09:41:01.711Z,0.90
2022-09-18T09:43:32.508Z,1.45
2022-09-18T09:46:00.892Z,1.15
2022-09-18T09:48:30.717Z,0.98
2022-09-18T09:51:07.849Z,1.50
2022-09-18T09:53:34.402Z,1.30
2022-09-18T09:56:28.927Z,1.13
2022-09-18T09:59:34.449Z,1.45
2022-09-18T10:02:25.798Z,3.47
2022-09-18T10:05:10.973Z,1.52
2022-09-18T10:07:41.538Z,2.20
2022-09-18T10:10:18.938Z,1.45
2022-09-18T10:13:02.061Z,2.33
2022-09-18T10:15:40.621Z,2.15
2022-09-18T10:18:39.495Z,2.80
2022-09-18T10:21:09.423Z,1.63
2022-09-18T10:24:20.528Z,1.98
2022-09-18T10:26:50.334Z,1.50
2022-09-18T10:29:17.648Z,1.70
2022-09-18T10:31:49.436Z,2.22
2022-09-18T10:34:42.574Z,1.92
2022-09-18T10:37:16.077Z,2.08
2022-09-18T10:39:51.446Z,4.13
2022-09-18T10:42:22.198Z,2.63
2022-09-18T10:45:13.073Z,2.47
2022-09-18T10:47:39.750Z,2.22
2022-09-18T10:50:06.411Z,2.53
2022-09-18T10:52:42.972Z,1.88
2022-09-18T10:55:12.935Z,4.10
2022-09-18T10:57:43.745Z,2.78
2022-09-18T11:00:13.764Z,2.80
2022-09-18T11:02:57.197Z,4.47
2022-09-18T11:05:31.532Z,3.67
2022-09-18T11:07:59.680Z,1.75
2022-09-18T11:10:27.085Z,3.05
2022-09-18T11:12:56.044Z,4.03
2022-09-18T11:15:28.422Z,2.72
2022-09-18T11:17:56.554Z,3.75
2022-09-18T11:20:27.112Z,3.83
2022-09-18T11:23:34.185Z,2.97
2022-09-18T11:26:29.826Z,3.08
2022-09-18T11:29:02.431Z,3.00
2022-09-18T11:31:50.124Z,3.70
2022-09-18T11:34:32.094Z,3.72
2022-09-18T11:37:05.410Z,6.25
2022-09-18T11:39:43.410Z,4.82
2022-09-18T11:42:12.536Z,4.40
2022-09-18T11:44:39.530Z,5.65
2022-09-18T11:47:12.089Z,3.67
2022-09-18T11:49:44.689Z,4.07
2022-09-18T11:52:17.269Z,6.18
2022-09-18T11:54:48.995Z,3.35
2022-09-18T11:57:51.301Z,5.90
2022-09-18T12:00:22.329Z,4.30
2022-09-18T12:03:00.629Z,5.50
2022-09-18T12:05:33.152Z,8.05
2022-09-18T12:08:20.376Z,5.75
2022-09-18T12:10:48.699Z,5.45
2022-09-18T12:13:21.861Z,6.45
2022-09-18T12:16:07.701Z,5.03
2022-09-18T12:18:48.485Z,7.90
2022-09-18T12:21:17.098Z,5.03
2022-09-18T12:23:43.683Z,7.47
2022-09-18T12:26:40.532Z,6.70
2022-09-18T12:29:22.789Z,5.38
2022-09-18T12:32:20.060Z,7.65
2022-09-18T12:35:17.395Z,6.80
2022-09-18T12:37:45.636Z,5.15
2022-09-18T12:40:25.831Z,5.65
2022-09-18T12:43:26.407Z,7.15
2022-09-18T12:46:14.180Z,6.97
2022-09-18T12:48:45.824Z,9.73
2022-09-18T12:51:36.825Z,9.50
2022-09-18T12:54:17.930Z,5.13
2022-09-18T12:57:00.775Z,5.93
2022-09-18T12:59:49.851Z,4.75
2022-09-18T13:02:16.295Z,6.40
2022-09-18T13:04:46.845Z,5.32
2022-09-18T13:07:17.153Z,6.10
2022-09-18T13:10:00.977Z,3.80
2022-09-18T13:12:31.277Z,6.53
2022-09-18T13:15:01.801Z,4.20
2022-09-18T13:17:34.620Z,4.57
2022-09-18T13:20:11.327Z,4.28
2022-09-18T13:22:38.086Z,3.28
2022-09-18T13:25:19.064Z,3.75
2022-09-18T13:27:49.684Z,3.50
2022-09-18T13:30:31.964Z,2.10
2022-09-18T13:32:59.022Z,6.28
2022-09-18T13:35:30.684Z,3.22
2022-09-18T13:38:20.040Z,3.47
2022-09-18T13:40:56.659Z,4.38
2022-09-18T13:43:43.617Z,4.78
2022-09-18T13:46:31.797Z,3.25
2022-09-18T13:48:59.072Z,4.13
2022-09-18T13:51:32.748Z,5.30
2022-09-18T13:54:11.587Z,6.22
2022-09-18T13:57:03.165Z,4.47
2022-09-18T13:59:48.520Z,3.60
2022-09-18T14:05:04.504Z,3.33
2022-09-18T14:07:31.017Z,4.13
2022-09-18T14:10:03.057Z,3.03
2022-09-18T14:12:33.402Z,3.10
2022-09-18T14:15:05.670Z,3.33
2022-09-18T14:17:33.123Z,4.45
2022-09-18T14:20:07.647Z,4.43
2022-09-18T14:22:38.029Z,3.88
2022-09-18T14:25:07.420Z,5.82
2022-09-18T14:27:56.063Z,3.50
2022-09-18T14:30:27.487Z,3.40
2022-09-18T14:33:16.459Z,4.13
2022-09-18T14:35:43.050Z,3.65
2022-09-18T14:38:36.701Z,5.43
2022-09-18T14:41:19.400Z,4.38
2022-09-18T14:43:56.985Z,3.10
2022-09-18T14:46:24.841Z,4.72
2022-09-18T14:48:51.686Z,5.80
2022-09-18T14:51:21.482Z,7.72
2022-09-18T14:53:52.777Z,4.57
2022-09-18T14:56:36.304Z,5.93
2022-09-18T14:59:07.320Z,4.18
2022-09-18T15:01:37.791Z,3.80
2022-09-18T15:04:05.171Z,3.65
2022-09-18T15:06:47.522Z,3.78
2022-09-18T15:09:15.329Z,2.85
2022-09-18T15:12:01.431Z,4.80
2022-09-18T15:14:41.821Z,6.00
2022-09-18T15:17:25.166Z,4.13
2022-09-18T15:19:59.903Z,4.15
2022-09-18T15:22:27.171Z,6.03
2022-09-18T15:24:53.836Z,4.15
2022-09-18T15:27:20.778Z,3.88
2022-09-18T15:30:09.698Z,4.88
2022-09-18T15:32:40.921Z,3.75
2022-09-18T15:35:08.968Z,4.32
2022-09-18T15:37:38.374Z,4.53
2022-09-18T15:40:06.686Z,5.00
2022-09-18T15:42:38.282Z,3.10
2022-09-18T15:45:07.949Z,4.60
2022-09-18T15:47:37.864Z,5.53
2022-09-18T15:50:10.566Z,3.15
2022-09-18T15:52:41.217Z,6.25
2022-09-18T15:55:10.883Z,5.03
2022-09-18T15:57:38.017Z,5.18
2022-09-18T16:00:11.738Z,5.25
2022-09-18T16:02:39.314Z,4.18
2022-09-18T16:05:13.717Z,3.88
2022-09-18T16:07:40.855Z,6.57
2022-09-18T16:10:35.177Z,5.15
2022-09-18T16:13:11.115Z,6.25
2022-09-18T16:15:37.799Z,5.75
2022-09-18T16:18:24.729Z,5.03
2022-09-18T16:20:51.462Z,5.78
2022-09-18T16:23:32.764Z,6.50
2022-09-18T16:26:06.041Z,7.15
2022-09-18T16:28:57.070Z,5.63
2022-09-18T16:31:25.596Z,4.55
2022-09-18T16:34:01.393Z,5.93
2022-09-18T16:36:35.393Z,6.40
2022-09-18T16:39:04.382Z,6.00
2022-09-18T16:41:31.076Z,6.00
2022-09-18T16:43:57.805Z,4.13
2022-09-18T16:46:27.149Z,3.78
2022-09-18T16:48:53.757Z,4.40
2022-09-18T16:51:21.963Z,7.07
2022-09-18T16:53:48.534Z,6.65
2022-09-18T16:56:16.196Z,3.75
2022-09-18T16:58:42.793Z,4.18
2022-09-18T17:01:09.896Z,5.85
2022-09-18T17:03:36.729Z,3.88
2022-09-18T17:06:03.427Z,4.53
2022-09-18T17:08:30.458Z,4.85
2022-09-18T17:10:57.265Z,5.88
2022-09-18T17:13:23.982Z,4.30
2022-09-18T17:15:50.651Z,8.27
2022-09-18T17:18:17.364Z,8.05
2022-09-18T17:20:45.885Z,7.20
2022-09-18T17:23:12.528Z,5.90
2022-09-18T17:25:39.104Z,9.88
2022-09-18T17:28:06.041Z,10.20
2022-09-18T17:30:32.614Z,7.75
2022-09-18T17:32:59.318Z,7.47
2022-09-18T17:35:26.507Z,7.78
2022-09-18T17:37:53.253Z,6.18
2022-09-18T17:40:19.922Z,7.53
2022-09-18T17:42:46.560Z,6.05
2022-09-18T17:45:13.226Z,6.53
2022-09-18T17:47:39.835Z,6.68
2022-09-18T17:50:07.529Z,5.55
2022-09-18T17:52:37.412Z,4.82
2022-09-18T17:55:04.302Z,6.10
2022-09-18T17:57:32.116Z,4.20
2022-09-18T17:59:58.703Z,5.82
2022-09-18T18:02:25.426Z,7.75
2022-09-18T18:04:52.088Z,5.15
2022-09-18T18:07:18.640Z,6.10
2022-09-18T18:09:45.190Z,4.00
2022-09-18T18:12:13.800Z,5.75
2022-09-18T18:14:41.649Z,6.07
2022-09-18T18:17:08.689Z,4.82
2022-09-18T18:19:35.322Z,5.53
2022-09-18T18:22:01.883Z,6.65
2022-09-18T18:24:29.793Z,5.55
2022-09-18T18:26:57.056Z,6.38
2022-09-18T18:29:24.323Z,6.25
2022-09-18T18:31:51.715Z,7.57
2022-09-18T18:34:22.336Z,5.57
2022-09-18T18:36:50.284Z,5.25
2022-09-18T18:39:16.952Z,6.75
2022-09-18T18:41:44.947Z,4.47
2022-09-18T18:44:21.848Z,7.05
2022-09-18T18:46:50.177Z,5.55
2022-09-18T18:49:17.096Z,4.75
2022-09-18T18:51:48.015Z,6.07
2022-09-18T18:54:16.047Z,4.68
2022-09-18T18:56:43.344Z,3.90
2022-09-18T18:59:15.035Z,5.55
2022-09-18T19:01:42.767Z,3.92
2022-09-18T19:04:11.699Z,6.30
2022-09-18T19:06:40.345Z,6.03
2022-09-18T19:09:19.790Z,5.60
2022-09-18T19:11:48.397Z,5.40
2022-09-18T19:14:19.774Z,4.93
2022-09-18T19:16:46.682Z,5.45
2022-09-18T19:19:13.974Z,4.45
2022-09-18T19:21:40.768Z,9.05
2022-09-18T19:24:08.493Z,9.63
2022-09-18T19:26:35.367Z,8.82
2022-09-18T19:29:05.584Z,6.38
2022-09-18T19:31:33.329Z,6.60
2022-09-18T19:33:59.988Z,7.60
2022-09-18T19:36:28.086Z,5.45
2022-09-18T19:38:59.169Z,4.47
2022-09-18T19:41:25.625Z,3.58
2022-09-18T19:43:52.432Z,4.90
2022-09-18T19:46:24.217Z,5.55
2022-09-18T19:48:51.397Z,2.65
2022-09-18T19:51:18.046Z,5.65
2022-09-18T19:53:44.690Z,4.05
2022-09-18T19:56:27.604Z,4.65
2022-09-18T19:58:58.226Z,4.38
2022-09-18T20:01:24.779Z,4.65
2022-09-18T20:03:54.805Z,3.40
2022-09-18T20:06:22.978Z,4.05
2022-09-18T20:08:50.070Z,4.82
2022-09-18T20:11:16.693Z,3.63
2022-09-18T20:13:43.317Z,3.30
2022-09-18T20:16:10.357Z,5.22
2022-09-18T20:18:37.889Z,4.43
2022-09-18T20:21:08.956Z,5.00
2022-09-18T20:23:36.227Z,4.00
2022-09-18T20:26:18.138Z,4.18
2022-09-18T20:28:44.810Z,4.43
2022-09-18T20:31:14.229Z,4.82
2022-09-18T20:33:40.949Z,2.55
2022-09-18T20:36:08.340Z,3.10
2022-09-18T20:38:36.886Z,3.28
2022-09-18T20:41:06.930Z,2.92
2022-09-18T20:43:35.831Z,5.57
2022-09-18T20:46:05.505Z,5.50
2022-09-18T20:48:36.717Z,5.22
2022-09-18T20:51:09.220Z,3.70
2022-09-18T20:53:38.302Z,4.15
2022-09-18T20:56:09.506Z,3.08
2022-09-18T20:58:36.222Z,3.83
2022-09-18T21:01:12.732Z,4.57
2022-09-18T21:03:43.092Z,4.72
2022-09-18T21:06:22.820Z,3.97
2022-09-18T21:08:50.806Z,4.47
2022-09-18T21:11:19.729Z,2.50
2022-09-18T21:13:49.181Z,3.53
2022-09-18T21:16:20.575Z,3.10
2022-09-18T21:18:48.134Z,2.50
2022-09-18T21:21:15.901Z,4.68
2022-09-18T21:23:56.200Z,3.55
2022-09-18T21:26:33.119Z,3.08
2022-09-18T21:29:12.956Z,3.78
2022-09-18T21:31:42.650Z,3.40
2022-09-18T21:34:14.241Z,3.35
2022-09-18T21:36:45.388Z,3.78
2022-09-18T21:39:13.003Z,13.00
2022-09-18T21:41:40.149Z,3.67
2022-09-18T21:44:08.730Z,2.67
2022-09-18T21:46:38.854Z,3.70
2022-09-18T21:49:06.886Z,2.97
2022-09-18T21:51:37.353Z,2.65
2022-09-18T21:54:05.576Z,3.15
2022-09-18T21:56:32.551Z,3.67
2022-09-18T21:58:59.980Z,2.33
2022-09-18T22:01:28.587Z,2.35
2022-09-18T22:03:56.394Z,3.05
2022-09-18T22:06:27.447Z,1.80
2022-09-18T22:08:56.627Z,2.80
2022-09-18T22:11:29.594Z,1.73
2022-09-18T22:14:00.997Z,2.60
2022-09-18T22:16:28.896Z,2.53
2022-09-18T22:18:55.661Z,2.00
2022-09-18T22:21:24.753Z,4.03
2022-09-18T22:23:53.283Z,2.20
2022-09-18T22:26:25.059Z,2.35
2022-09-18T22:28:56.549Z,2.38
2022-09-18T22:31:24.104Z,2.30
2022-09-18T22:33:57.697Z,2.92
2022-09-18T22:36:25.134Z,2.15
2022-09-18T22:38:52.302Z,1.70
2022-09-18T22:41:18.988Z,1.30
2022-09-18T22:43:45.587Z,1.50
2022-09-18T22:46:24.077Z,1.92
2022-09-18T22:48:51.478Z,1.67
2022-09-18T22:51:19.234Z,1.40
2022-09-18T22:54:04.840Z,2.58
2022-09-18T22:56:31.454Z,1.60
2022-09-18T22:58:58.186Z,1.30
2022-09-18T23:01:27.615Z,2.10
2022-09-18T23:03:56.756Z,1.10
2022-09-18T23:06:25.570Z,1.48
2022-09-18T23:08:52.922Z,1.48
2022-09-18T23:11:24.301Z,1.50
2022-09-18T23:13:52.980Z,1.58
2022-09-18T23:16:19.910Z,1.35
2022-09-18T23:18:54.324Z,1.63
2022-09-18T23:21:21.863Z,1.98
2022-09-18T23:23:49.013Z,1.30
2022-09-18T23:26:23.280Z,1.52
2022-09-18T23:28:51.090Z,1.20
2022-09-18T23:31:24.128Z,1.42
2022-09-18T23:33:52.611Z,1.58
2022-09-18T23:36:30.038Z,1.17
2022-09-18T23:38:58.223Z,1.42
2022-09-18T23:41:24.924Z,1.20
2022-09-18T23:43:52.392Z,1.75
2022-09-18T23:46:19.167Z,2.88
2022-09-18T23:48:47.442Z,1.67
2022-09-18T23:51:14.103Z,1.40
2022-09-18T23:53:41.792Z,1.30
2022-09-18T23:56:12.398Z,1.65
2022-09-18T23:58:39.048Z,1.42
